Time;durP1;ratioP1;P1;durP2;ratioP2;P2;SDS_P1;SDS_P2;PMS_P1;PMS_P2;Temp;Humidity;BMP_temperature;BMP_pressure;BME280_temperature;BME280_humidity;BME280_pressure;Samples;Min_cycle;Max_cycle;Signal;HPM_P1;HPM_P2
2022/03/02 00:02:14;;;;;;;;;71.33;54.00;;;;;21.59;39.84;102356.76;112788;1243;20208;-49
2022/03/02 00:04:40;;;;;;;;;67.00;52.33;;;;;21.60;39.82;102357.41;112096;1243;21893;-49
2022/03/02 00:07:06;;;;;;;;;69.00;51.00;;;;;21.61;39.88;102355.17;112101;1242;19291;-49
2022/03/02 00:09:32;;;;;;;;;68.00;53.00;;;;;21.61;39.69;102352.23;112123;1243;22830;-49
2022/03/02 00:11:58;;;;;;;;;66.67;53.00;;;;;21.61;39.69;102349.00;112100;1242;19142;-49
2022/03/02 00:14:24;;;;;;;;;72.00;55.33;;;;;21.60;39.73;102351.17;112124;1243;23245;-50
2022/03/02 00:16:50;;;;;;;;;65.33;53.67;;;;;21.60;39.75;102349.74;112102;1243;23109;-49
2022/03/02 00:19:16;;;;;;;;;69.00;53.50;;;;;21.60;39.71;102345.03;112070;1243;19187;-52
2022/03/02 00:21:42;;;;;;;;;70.00;53.00;;;;;21.60;39.65;102348.85;112085;1243;19412;-50
2022/03/02 00:24:08;;;;;;;;;71.33;53.00;;;;;21.61;39.81;102349.71;112073;1243;22385;-50
2022/03/02 00:26:34;;;;;;;;;70.67;54.67;;;;;21.59;39.76;102342.02;112109;1243;20047;-48
2022/03/02 00:29:00;;;;;;;;;66.00;54.33;;;;;21.59;39.64;102333.49;111933;1243;19491;-49
2022/03/02 00:31:26;;;;;;;;;71.67;54.00;;;;;21.59;39.59;102330.77;111929;1242;20168;-50
2022/03/02 00:33:51;;;;;;;;;70.50;54.00;;;;;21.59;39.48;102325.89;112096;1243;23125;-48
2022/03/02 00:36:17;;;;;;;;;67.50;55.00;;;;;21.59;39.64;102318.38;112076;1243;19422;-49
2022/03/02 00:38:43;;;;;;;;;66.67;54.33;;;;;21.59;39.55;102318.06;112040;1243;20005;-48
2022/03/02 00:41:09;;;;;;;;;66.33;53.67;;;;;21.59;39.38;102310.80;112023;1243;23725;-49
2022/03/02 00:43:35;;;;;;;;;67.67;53.00;;;;;21.58;39.46;102309.96;112119;1243;19924;-52
2022/03/02 00:46:01;;;;;;;;;69.00;52.00;;;;;21.58;39.50;102303.91;112081;1243;20067;-48
2022/03/02 00:48:27;;;;;;;;;66.50;53.00;;;;;21.57;39.28;102303.09;112111;1243;23122;-48
2022/03/02 00:50:52;;;;;;;;;69.00;53.00;;;;;21.57;39.37;102298.00;112081;1243;19872;-47
2022/03/02 00:53:18;;;;;;;;;69.67;55.67;;;;;21.57;39.51;102286.00;112093;1243;23081;-51
2022/03/02 00:55:44;;;;;;;;;67.00;53.33;;;;;21.57;39.37;102290.94;112069;1243;19189;-50
2022/03/02 00:58:10;;;;;;;;;65.00;53.33;;;;;21.56;39.45;102288.98;112076;1243;19316;-48
2022/03/02 01:00:36;;;;;;;;;67.50;52.50;;;;;21.56;39.26;102293.35;112040;1243;20146;-49
2022/03/02 01:03:02;;;;;;;;;66.50;53.50;;;;;21.56;39.32;102289.19;112079;1243;23728;-49
2022/03/02 01:05:28;;;;;;;;;67.00;53.33;;;;;21.56;39.20;102287.34;112091;1243;19350;-49
2022/03/02 01:07:54;;;;;;;;;68.00;53.50;;;;;21.56;39.43;102283.73;111558;1243;635043;-48
2022/03/02 01:10:19;;;;;;;;;70.00;53.00;;;;;21.56;39.09;102279.36;112079;1243;18988;-48
2022/03/02 01:12:45;;;;;;;;;71.50;54.00;;;;;21.55;39.36;102271.08;112071;1243;23632;-52
2022/03/02 01:15:11;;;;;;;;;68.00;54.33;;;;;21.55;39.15;102271.44;112083;1243;20027;-50
2022/03/02 01:17:37;;;;;;;;;66.50;55.00;;;;;21.55;39.34;102268.34;112115;1243;23017;-49
2022/03/02 01:20:03;;;;;;;;;70.33;53.67;;;;;21.56;39.13;102268.10;112110;1243;19280;-51
2022/03/02 01:22:29;;;;;;;;;71.67;55.00;;;;;21.56;39.14;102265.58;112086;1243;21322;-48
2022/03/02 01:24:55;;;;;;;;;71.33;53.00;;;;;21.55;39.00;102257.11;112074;1243;19326;-50
2022/03/02 01:27:21;;;;;;;;;68.50;52.00;;;;;21.55;39.22;102258.52;112077;1243;19597;-50
2022/03/02 01:29:47;;;;;;;;;68.00;52.67;;;;;21.55;39.15;102257.08;112107;1242;19939;-49
2022/03/02 01:32:13;;;;;;;;;69.00;53.00;;;;;21.55;39.14;102253.80;112107;1243;20093;-50
2022/03/02 01:34:39;;;;;;;;;68.00;54.00;;;;;21.55;39.22;102254.59;112098;1243;19405;-51
2022/03/02 01:37:04;;;;;;;;;68.67;54.00;;;;;21.55;38.93;102257.83;112109;1243;19954;-49
2022/03/02 01:39:30;;;;;;;;;71.67;54.00;;;;;21.55;39.01;102260.41;112163;1242;19055;-50
2022/03/02 01:41:56;;;;;;;;;68.00;51.33;;;;;21.54;39.01;102257.01;112148;1243;19250;-49
2022/03/02 01:44:22;;;;;;;;;67.00;52.33;;;;;21.54;39.11;102260.11;112100;1242;20478;-47
2022/03/02 01:46:48;;;;;;;;;69.67;53.33;;;;;21.54;39.00;102256.14;112142;1243;22510;-49
2022/03/02 01:49:14;;;;;;;;;65.00;53.33;;;;;21.54;39.00;102250.66;112139;1243;19421;-48
2022/03/02 01:51:40;;;;;;;;;66.00;52.67;;;;;21.53;38.92;102248.55;112136;1243;23298;-49
2022/03/02 01:54:05;;;;;;;;;72.67;53.67;;;;;21.53;38.76;102244.95;112126;1243;19189;-47
2022/03/02 01:56:31;;;;;;;;;65.00;51.67;;;;;21.52;38.95;102237.38;112105;1242;19285;-48
2022/03/02 01:58:57;;;;;;;;;66.67;51.33;;;;;21.51;38.88;102234.16;112125;1243;23221;-49
2022/03/02 02:01:23;;;;;;;;;63.33;52.33;;;;;21.51;38.96;102230.35;112129;1242;19071;-50
2022/03/02 02:03:49;;;;;;;;;66.67;52.67;;;;;21.51;38.91;102231.27;112139;1242;20625;-49
2022/03/02 02:06:15;;;;;;;;;67.50;52.00;;;;;21.51;38.93;102229.63;112141;1243;23077;-49
2022/03/02 02:08:41;;;;;;;;;64.67;52.67;;;;;21.52;38.90;102231.95;112135;1243;19087;-50
2022/03/02 02:11:07;;;;;;;;;68.33;53.67;;;;;21.51;38.79;102231.27;112110;1243;23641;-47
2022/03/02 02:13:34;;;;;;;;;63.00;50.00;;;;;21.51;38.99;102228.70;112131;1242;20245;-49
2022/03/02 02:16:00;;;;;;;;;69.00;53.00;;;;;21.51;38.95;102235.63;112127;1243;19305;-48
2022/03/02 02:18:26;;;;;;;;;64.33;52.33;;;;;21.52;38.82;102234.14;112132;1242;19280;-49
2022/03/02 02:20:51;;;;;;;;;68.33;53.33;;;;;21.52;38.75;102234.65;112163;1243;22455;-49
2022/03/02 02:23:17;;;;;;;;;65.00;54.00;;;;;21.52;38.62;102230.66;112103;1243;19640;-49
2022/03/02 02:25:43;;;;;;;;;64.50;52.00;;;;;21.52;38.76;102230.45;112130;1243;23410;-48
2022/03/02 02:28:10;;;;;;;;;63.67;52.67;;;;;21.51;38.68;102226.16;112140;1242;20132;-49
2022/03/02 02:30:36;;;;;;;;;67.00;51.33;;;;;21.52;38.75;102222.86;112106;1243;21135;-48
2022/03/02 02:33:02;;;;;;;;;62.67;51.67;;;;;21.51;38.77;102221.84;112134;1243;20777;-48
2022/03/02 02:35:28;;;;;;;;;70.33;51.33;;;;;21.52;38.85;102223.60;112099;1242;19989;-52
2022/03/02 02:40:56;;;;;;;;;63.00;52.00;;;;;21.51;38.70;102215.85;111866;1243;20668;-49
2022/03/02 02:43:22;;;;;;;;;68.50;53.00;;;;;21.51;38.80;102208.70;112118;1243;20007;-49
2022/03/02 02:45:48;;;;;;;;;68.00;51.50;;;;;21.52;38.67;102204.33;112073;1242;23509;-49
2022/03/02 02:48:14;;;;;;;;;63.00;49.00;;;;;21.51;38.61;102200.22;112100;1243;19387;-48
2022/03/02 02:50:40;;;;;;;;;66.00;52.00;;;;;21.52;38.70;102199.05;112084;1243;21327;-47
2022/03/02 02:53:06;;;;;;;;;64.33;51.33;;;;;21.51;38.64;102193.30;112097;1242;19084;-47
2022/03/02 02:55:32;;;;;;;;;62.67;50.00;;;;;21.50;38.79;102188.65;112101;1242;19501;-49
2022/03/02 02:57:58;;;;;;;;;64.67;52.67;;;;;21.51;38.80;102189.30;112104;1242;20119;-48
2022/03/02 03:00:24;;;;;;;;;69.50;52.00;;;;;21.50;38.64;102184.69;112146;1243;24697;-49
2022/03/02 03:02:50;;;;;;;;;68.67;54.00;;;;;21.49;38.65;102186.73;112120;1242;19428;-49
2022/03/02 03:05:16;;;;;;;;;66.67;52.67;;;;;21.50;38.63;102183.06;112105;1243;21589;-49
2022/03/02 03:07:42;;;;;;;;;66.33;48.00;;;;;21.49;38.62;102180.05;112060;1243;19154;-52
2022/03/02 03:10:08;;;;;;;;;62.33;51.00;;;;;21.49;38.74;102178.23;112045;1243;23782;-47
2022/03/02 03:12:33;;;;;;;;;64.67;49.33;;;;;21.47;38.84;102172.99;112075;1243;20794;-53
2022/03/02 03:14:59;;;;;;;;;64.00;49.33;;;;;21.49;38.72;102171.89;112092;1242;19107;-48
2022/03/02 03:17:25;;;;;;;;;64.00;51.33;;;;;21.48;38.62;102168.67;112090;1242;19233;-50
2022/03/02 03:19:51;;;;;;;;;62.67;50.33;;;;;21.48;38.68;102172.06;112079;1243;19994;-49
2022/03/02 03:22:17;;;;;;;;;63.00;49.00;;;;;21.48;38.56;102173.73;112100;1243;24523;-49
2022/03/02 03:24:43;;;;;;;;;67.00;52.00;;;;;21.48;38.66;102170.69;112091;1243;19288;-48
2022/03/02 03:27:09;;;;;;;;;63.00;48.00;;;;;21.48;38.60;102169.84;112104;1243;20238;-49
2022/03/02 03:29:35;;;;;;;;;68.67;51.67;;;;;21.46;38.68;102163.59;112092;1242;19090;-49
2022/03/02 03:32:00;;;;;;;;;65.33;49.33;;;;;21.47;38.68;102166.75;112076;1242;20907;-51
2022/03/02 03:34:26;;;;;;;;;68.00;51.33;;;;;21.47;38.65;102165.88;112060;1242;19989;-49
2022/03/02 03:36:52;;;;;;;;;65.67;49.67;;;;;21.46;38.61;102162.50;112111;1243;19102;-49
2022/03/02 03:39:18;;;;;;;;;63.00;48.67;;;;;21.47;38.49;102160.27;112117;1243;19221;-49
2022/03/02 03:41:44;;;;;;;;;59.67;48.33;;;;;21.48;38.50;102159.98;112128;1243;19984;-49
2022/03/02 03:44:10;;;;;;;;;65.33;49.00;;;;;21.47;38.51;102158.77;112096;1242;19897;-48
2022/03/02 03:46:36;;;;;;;;;60.00;47.33;;;;;21.46;38.54;102156.64;112080;1242;19336;-50
2022/03/02 03:49:01;;;;;;;;;63.00;48.00;;;;;21.46;38.39;102152.98;112085;1243;20024;-49
2022/03/02 03:51:27;;;;;;;;;58.00;45.50;;;;;21.47;38.36;102154.43;112096;1242;19193;-48
2022/03/02 03:53:53;;;;;;;;;60.00;48.00;;;;;21.47;38.52;102156.95;112093;1243;19447;-49
2022/03/02 03:56:19;;;;;;;;;60.33;46.67;;;;;21.46;38.41;102146.65;112074;1243;23156;-49
2022/03/02 03:58:45;;;;;;;;;57.00;46.00;;;;;21.42;38.53;102136.86;112091;1243;19120;-48
2022/03/02 04:01:11;;;;;;;;;63.00;48.00;;;;;21.46;38.38;102140.64;112060;1243;24044;-47
2022/03/02 04:03:37;;;;;;;;;57.33;47.00;;;;;21.46;38.35;102133.77;112095;1243;20375;-48
2022/03/02 04:06:03;;;;;;;;;55.00;46.67;;;;;21.45;38.55;102134.52;112141;1243;19058;-51
2022/03/02 04:08:29;;;;;;;;;63.00;48.33;;;;;21.45;38.44;102134.41;112087;1243;24449;-47
2022/03/02 04:10:55;;;;;;;;;60.33;46.67;;;;;21.46;38.51;102132.14;112084;1243;20495;-49
2022/03/02 04:13:21;;;;;;;;;63.00;48.00;;;;;21.45;38.53;102134.92;112108;1243;19090;-49
2022/03/02 04:15:47;;;;;;;;;63.50;51.00;;;;;21.45;38.27;102132.17;112082;1242;19447;-48
2022/03/02 04:18:13;;;;;;;;;59.67;47.33;;;;;21.45;38.34;102128.93;112114;1242;21098;-51
2022/03/02 04:20:38;;;;;;;;;58.33;47.33;;;;;21.45;38.37;102128.53;112101;1243;23770;-55
2022/03/02 04:23:04;;;;;;;;;55.00;44.00;;;;;21.45;38.29;102124.70;112075;1243;19239;-49
2022/03/02 04:25:30;;;;;;;;;58.33;48.00;;;;;21.44;38.45;102123.36;112078;1243;23568;-49
2022/03/02 04:27:56;;;;;;;;;57.67;45.67;;;;;21.46;38.50;102125.80;112064;1243;19051;-52
2022/03/02 04:30:22;;;;;;;;;53.67;44.00;;;;;21.45;38.32;102122.02;112053;1243;19483;-49
2022/03/02 04:32:48;;;;;;;;;64.33;49.00;;;;;21.46;38.35;102128.47;112089;1243;19838;-49
2022/03/02 04:35:14;;;;;;;;;60.00;47.00;;;;;21.46;38.20;102124.49;112099;1243;23160;-49
2022/03/02 04:37:40;;;;;;;;;55.67;44.33;;;;;21.46;38.23;102128.86;112079;1243;19281;-50
2022/03/02 04:40:06;;;;;;;;;55.00;47.33;;;;;21.46;38.20;102129.25;112066;1243;20150;-54
2022/03/02 04:42:32;;;;;;;;;56.00;43.67;;;;;21.46;38.43;102128.15;111990;1243;19238;-48
2022/03/02 04:44:58;;;;;;;;;60.00;47.00;;;;;21.46;38.31;102126.67;112097;1243;19236;-49
2022/03/02 04:47:23;;;;;;;;;58.67;44.00;;;;;21.46;38.25;102124.51;112057;1243;22679;-49
2022/03/02 04:49:49;;;;;;;;;54.67;43.00;;;;;21.45;38.13;102122.17;112038;1243;19087;-47
2022/03/02 04:52:15;;;;;;;;;52.67;43.00;;;;;21.45;38.31;102123.44;112069;1243;23653;-48
2022/03/02 04:57:25;;;;;;;;;60.00;46.67;;;;;21.45;38.25;102125.45;112018;1244;19120;-50
2022/03/02 04:59:51;;;;;;;;;53.00;45.00;;;;;21.45;38.25;102124.36;112045;1245;19201;-49
2022/03/02 05:02:17;;;;;;;;;58.33;47.33;;;;;21.45;38.38;102127.50;112028;1244;19960;-49
2022/03/02 05:04:43;;;;;;;;;59.00;44.33;;;;;21.45;38.14;102124.94;112054;1244;23280;-51
2022/03/02 05:07:09;;;;;;;;;58.00;47.00;;;;;21.45;38.30;102126.23;112028;1244;19412;-49
2022/03/02 05:09:35;;;;;;;;;50.33;44.00;;;;;21.45;38.19;102121.86;112050;1245;19947;-50
2022/03/02 05:12:02;;;;;;;;;53.50;46.50;;;;;21.44;38.29;102112.45;112054;1245;21883;-49
2022/03/02 05:14:28;;;;;;;;;52.67;44.67;;;;;21.44;38.27;102114.90;112057;1245;19687;-48
2022/03/02 05:16:54;;;;;;;;;57.00;47.33;;;;;21.44;38.33;102113.72;112062;1245;23111;-50
2022/03/02 05:19:20;;;;;;;;;59.67;47.00;;;;;21.43;38.25;102105.45;112043;1245;19965;-49
2022/03/02 05:21:46;;;;;;;;;57.67;44.00;;;;;21.43;38.21;102103.81;112053;1244;19319;-50
2022/03/02 05:24:11;;;;;;;;;55.67;43.67;;;;;21.43;38.06;102097.65;112046;1244;23189;-49
2022/03/02 05:26:37;;;;;;;;;56.00;47.00;;;;;21.43;38.17;102097.84;112053;1245;19410;-49
2022/03/02 05:29:03;;;;;;;;;55.00;45.67;;;;;21.42;38.28;102094.84;112042;1245;23042;-50
2022/03/02 05:31:29;;;;;;;;;49.67;42.67;;;;;21.43;38.15;102095.18;112062;1245;20144;-51
2022/03/02 05:33:55;;;;;;;;;48.67;40.67;;;;;21.42;38.42;102096.71;112052;1244;19068;-49
2022/03/02 05:36:21;;;;;;;;;50.67;43.00;;;;;21.42;38.19;102102.54;112047;1245;19337;-48
2022/03/02 05:38:47;;;;;;;;;54.00;44.00;;;;;21.42;38.10;102096.36;112085;1245;19991;-50
2022/03/02 05:41:12;;;;;;;;;52.67;44.67;;;;;21.41;38.35;102094.97;111982;1245;23210;-49
2022/03/02 05:43:38;;;;;;;;;47.33;41.00;;;;;21.40;38.14;102095.92;112044;1245;19265;-50
2022/03/02 05:46:04;;;;;;;;;59.33;44.33;;;;;21.41;38.13;102096.11;112061;1244;19919;-50
2022/03/02 05:48:30;;;;;;;;;50.50;45.00;;;;;21.40;38.15;102092.67;112060;1245;23181;-51
2022/03/02 05:50:56;;;;;;;;;59.00;46.67;;;;;21.41;38.09;102091.38;112059;1245;21922;-49
2022/03/02 05:53:22;;;;;;;;;58.50;44.00;;;;;21.40;38.19;102094.48;112075;1245;23197;-50
2022/03/02 05:55:48;;;;;;;;;49.67;43.00;;;;;21.41;38.20;102098.46;112039;1245;19064;-51
2022/03/02 05:58:14;;;;;;;;;50.00;44.00;;;;;21.41;38.06;102095.02;112068;1245;23155;-52
2022/03/02 06:00:41;;;;;;;;;43.33;40.00;;;;;21.41;38.17;102093.13;112039;1245;19959;-51
2022/03/02 06:03:07;;;;;;;;;51.50;42.50;;;;;21.41;37.93;102087.35;112060;1244;19440;-50
2022/03/02 06:05:34;;;;;;;;;51.00;43.00;;;;;21.41;38.16;102087.50;112017;1245;19461;-50
2022/03/02 06:07:59;;;;;;;;;58.67;43.67;;;;;21.42;38.11;102084.67;112049;1245;20325;-51
2022/03/02 06:10:25;;;;;;;;;55.67;44.67;;;;;21.43;38.19;102086.45;112016;1245;19129;-55
2022/03/02 06:12:51;;;;;;;;;49.33;43.33;;;;;21.43;37.95;102081.34;112071;1244;21878;-50
2022/03/02 06:15:17;;;;;;;;;50.33;43.00;;;;;21.43;37.87;102081.11;112068;1244;19942;-50
2022/03/02 06:17:43;;;;;;;;;48.33;40.33;;;;;21.45;37.93;102082.02;112043;1245;21247;-51
2022/03/02 06:20:09;;;;;;;;;49.67;43.67;;;;;21.47;38.00;102082.95;112058;1244;20858;-50
2022/03/02 06:22:35;;;;;;;;;51.67;44.00;;;;;21.48;38.04;102081.76;112007;1245;20165;-53
2022/03/02 06:25:00;;;;;;;;;48.33;42.33;;;;;21.49;37.74;102082.17;112019;1245;19013;-49
2022/03/02 06:27:26;;;;;;;;;48.50;41.00;;;;;21.52;37.98;102085.88;112049;1245;23826;-50
2022/03/02 06:29:52;;;;;;;;;55.67;43.00;;;;;21.55;37.80;102086.14;112083;1244;20171;-51
2022/03/02 06:32:18;;;;;;;;;46.00;40.00;;;;;21.57;37.95;102084.42;112059;1244;19139;-49
2022/03/02 06:34:44;;;;;;;;;52.33;42.67;;;;;21.62;37.94;102085.26;112071;1245;19319;-49
2022/03/02 06:37:10;;;;;;;;;44.67;40.00;;;;;21.68;37.89;102082.19;111970;1244;20151;-51
2022/03/02 06:39:36;;;;;;;;;49.00;40.00;;;;;21.75;37.93;102080.40;111932;1244;19014;-46
2022/03/02 06:42:02;;;;;;;;;43.67;39.67;;;;;21.79;38.23;102076.16;112018;1244;19561;-48
2022/03/02 06:44:27;;;;;;;;;46.00;40.33;;;;;21.80;38.33;102073.84;112016;1245;24279;-51
2022/03/02 06:46:53;;;;;;;;;49.67;40.00;;;;;21.83;38.43;102068.31;112040;1245;19527;-50
2022/03/02 06:49:19;;;;;;;;;50.50;42.00;;;;;21.90;39.22;102060.30;112018;1245;19442;-51
2022/03/02 06:51:45;;;;;;;;;51.00;40.67;;;;;21.99;39.61;102063.96;111890;1245;20014;-49
2022/03/02 06:54:11;;;;;;;;;44.00;38.00;;;;;22.02;39.88;102063.64;111845;1244;21059;-49
2022/03/02 06:56:37;;;;;;;;;40.50;36.50;;;;;22.09;40.13;102066.73;111829;1245;23805;-49
2022/03/02 06:59:03;;;;;;;;;37.00;36.00;;;;;22.22;40.49;102064.45;111850;1244;19900;-49
2022/03/02 07:01:28;;;;;;;;;37.50;34.00;;;;;22.27;40.42;102060.62;111887;1244;19199;-51
2022/03/02 07:03:54;;;;;;;;;41.67;39.00;;;;;22.25;40.47;102062.66;111911;1244;22910;-49
2022/03/02 07:06:20;;;;;;;;;40.50;35.00;;;;;22.23;40.41;102063.35;111943;1245;20160;-52
2022/03/02 07:08:48;;;;;;;;;35.50;33.00;;;;;22.21;40.35;102063.63;112041;1245;19106;-50
2022/03/02 07:11:15;;;;;;;;;41.00;36.00;;;;;22.19;40.51;102054.19;112022;1245;20264;-50
2022/03/02 07:13:41;;;;;;;;;38.67;34.33;;;;;22.25;40.54;102052.82;111943;1245;20254;-49
2022/03/02 07:16:07;;;;;;;;;42.00;38.00;;;;;22.30;40.84;102048.70;111978;1245;19038;-50
2022/03/02 07:18:34;;;;;;;;;42.67;37.33;;;;;22.36;40.76;102046.92;112046;1245;20784;-50
2022/03/02 07:20:59;;;;;;;;;41.50;35.50;;;;;22.43;40.66;102049.52;112050;1245;20247;-50
2022/03/02 07:23:25;;;;;;;;;36.00;32.00;;;;;22.48;40.90;102055.56;112012;1245;19061;-50
2022/03/02 07:25:52;;;;;;;;;32.00;30.50;;;;;22.55;40.80;102056.08;112014;1245;20521;-50
2022/03/02 07:28:18;;;;;;;;;35.00;32.33;;;;;22.56;40.72;102050.56;112021;1245;21535;-50
2022/03/02 07:30:44;;;;;;;;;35.00;32.00;;;;;22.53;40.27;102042.69;111941;1245;23755;-50
2022/03/02 07:33:10;;;;;;;;;39.67;35.33;;;;;22.50;40.57;102038.58;111994;1244;19713;-50
2022/03/02 07:35:36;;;;;;;;;36.00;31.00;;;;;22.49;40.53;102039.05;111848;1245;20024;-50
2022/03/02 07:38:02;;;;;;;;;46.00;39.00;;;;;22.50;40.49;102041.69;111854;1245;19112;-50
2022/03/02 07:40:27;;;;;;;;;42.00;35.67;;;;;22.53;40.36;102042.34;111845;1244;19277;-50
2022/03/02 07:42:53;;;;;;;;;43.00;38.67;;;;;22.57;40.25;102034.44;111808;1245;19989;-51
2022/03/02 07:45:19;;;;;;;;;60.67;45.00;;;;;22.58;40.45;102037.52;111846;1245;19223;-50
2022/03/02 07:47:45;;;;;;;;;53.00;42.00;;;;;22.61;40.11;102040.59;111820;1245;19302;-46
2022/03/02 07:50:11;;;;;;;;;48.00;39.67;;;;;22.63;40.04;102041.80;111981;1244;19997;-51
2022/03/02 07:52:37;;;;;;;;;45.00;39.00;;;;;22.66;39.90;102041.32;112017;1245;19177;-48
2022/03/02 07:55:03;;;;;;;;;45.00;39.50;;;;;22.65;39.86;102037.55;111991;1245;23780;-49
2022/03/02 07:57:29;;;;;;;;;47.00;39.00;;;;;22.64;39.84;102035.32;112000;1245;19941;-50
2022/03/02 07:59:55;;;;;;;;;44.33;38.00;;;;;22.61;39.85;102034.69;112047;1245;20137;-50
2022/03/02 08:02:20;;;;;;;;;44.00;39.00;;;;;22.62;39.88;102036.27;112042;1245;19320;-50
2022/03/02 08:04:46;;;;;;;;;49.00;40.00;;;;;22.62;39.83;102029.30;111999;1245;20171;-49
2022/03/02 08:07:12;;;;;;;;;39.50;35.00;;;;;22.64;39.62;102023.30;111987;1244;19090;-52
2022/03/02 08:09:38;;;;;;;;;40.00;36.00;;;;;22.69;39.56;102013.50;111989;1244;19575;-53
2022/03/02 08:12:07;;;;;;;;;39.00;35.50;;;;;22.73;39.58;102010.80;111955;1245;19878;-54
2022/03/02 08:14:33;;;;;;;;;45.33;38.00;;;;;22.72;39.67;102016.16;112005;1244;19222;-50
2022/03/02 08:16:59;;;;;;;;;43.50;36.50;;;;;22.72;39.63;102014.86;111986;1245;23729;-50
2022/03/02 08:19:25;;;;;;;;;36.00;31.00;;;;;22.75;39.66;102005.95;112055;1245;20066;-49
2022/03/02 08:21:51;;;;;;;;;40.00;37.00;;;;;22.79;39.61;102006.98;112012;1244;19000;-51
2022/03/02 08:24:16;;;;;;;;;40.50;35.50;;;;;22.84;39.86;102008.46;112020;1245;23727;-50
2022/03/02 08:26:42;;;;;;;;;44.00;37.00;;;;;22.86;39.80;102009.55;112018;1245;20030;-50
2022/03/02 08:29:08;;;;;;;;;36.00;31.00;;;;;22.89;39.84;102011.65;112004;1245;19220;-50
2022/03/02 08:31:34;;;;;;;;;38.00;35.00;;;;;22.93;39.71;102013.15;112006;1245;19262;-53
2022/03/02 08:34:00;;;;;;;;;44.00;36.00;;;;;22.94;39.68;102014.75;111980;1245;23361;-51
2022/03/02 08:36:26;;;;;;;;;37.00;34.50;;;;;22.91;39.58;102009.52;111988;1245;18971;-51
2022/03/02 08:38:52;;;;;;;;;41.33;35.33;;;;;22.89;39.39;102009.43;112046;1245;19581;-49
2022/03/02 08:41:18;;;;;;;;;34.33;31.67;;;;;22.86;39.46;102008.23;112016;1245;23054;-49
2022/03/02 08:43:43;;;;;;;;;37.67;33.33;;;;;22.83;39.58;102008.96;112013;1245;19237;-51
2022/03/02 08:46:09;;;;;;;;;37.33;34.00;;;;;22.81;39.40;102008.08;112019;1245;19448;-49
2022/03/02 08:48:35;;;;;;;;;42.50;36.00;;;;;22.81;39.47;102001.72;112038;1245;19974;-49
2022/03/02 08:51:01;;;;;;;;;40.50;34.00;;;;;22.80;39.40;101999.23;112028;1244;23591;-51
2022/03/02 08:53:27;;;;;;;;;37.33;36.00;;;;;22.82;39.33;101991.35;112061;1245;19253;-51
2022/03/02 08:55:53;;;;;;;;;45.00;35.00;;;;;22.83;39.40;101983.75;112034;1245;20135;-53
2022/03/02 08:58:19;;;;;;;;;41.00;36.00;;;;;22.83;39.26;101980.73;112015;1245;19091;-51
2022/03/02 09:00:45;;;;;;;;;37.33;35.00;;;;;22.82;39.33;101980.79;112020;1245;19711;-49
2022/03/02 09:03:11;;;;;;;;;33.00;31.00;;;;;22.81;39.26;101978.70;112010;1245;20011;-50
2022/03/02 09:05:36;;;;;;;;;38.67;32.33;;;;;22.81;39.33;101979.30;112038;1245;23841;-51
2022/03/02 09:08:02;;;;;;;;;34.50;32.00;;;;;22.80;39.26;101976.95;111879;1245;19292;-51
2022/03/02 09:10:29;;;;;;;;;36.33;31.67;;;;;22.83;39.28;101977.05;111945;1245;20095;-50
2022/03/02 09:12:56;;;;;;;;;33.67;30.33;;;;;22.85;39.27;101971.59;111852;1245;19301;-50
2022/03/02 09:15:22;;;;;;;;;37.33;30.00;;;;;22.88;39.25;101973.10;111809;1245;19959;-49
2022/03/02 09:17:49;;;;;;;;;33.67;33.33;;;;;22.90;39.10;101973.95;111970;1244;20010;-45
2022/03/02 09:20:15;;;;;;;;;42.67;34.67;;;;;22.89;39.02;101973.86;111928;1245;19359;-52
2022/03/02 09:22:41;;;;;;;;;45.50;39.50;;;;;22.90;39.05;101972.13;111981;1245;23582;-52
2022/03/02 09:25:07;;;;;;;;;41.00;38.00;;;;;22.89;39.14;101972.44;111963;1244;20078;-50
2022/03/02 09:27:33;;;;;;;;;45.33;38.33;;;;;22.91;39.30;101971.68;111989;1245;19380;-51
2022/03/02 09:29:59;;;;;;;;;47.33;40.33;;;;;22.94;39.17;101970.67;111981;1245;20677;-48
2022/03/02 09:32:25;;;;;;;;;48.00;40.67;;;;;22.90;39.19;101969.58;111969;1244;23061;-51
2022/03/02 09:34:51;;;;;;;;;45.67;38.00;;;;;22.84;39.27;101966.02;111884;1245;22963;-53
2022/03/02 09:37:17;;;;;;;;;38.67;35.00;;;;;22.79;39.37;101965.29;111966;1244;19561;-48
2022/03/02 09:39:43;;;;;;;;;50.00;43.67;;;;;22.76;39.51;101963.72;111979;1245;20394;-51
2022/03/02 09:42:09;;;;;;;;;47.67;38.00;;;;;22.79;39.61;101965.98;112020;1243;23193;-51
2022/03/02 09:44:35;;;;;;;;;44.50;39.50;;;;;22.80;39.64;101966.42;112007;1243;19391;-48
2022/03/02 09:47:01;;;;;;;;;49.00;39.00;;;;;22.80;39.71;101967.55;111899;1243;23761;-48
2022/03/02 09:49:27;;;;;;;;;41.33;36.33;;;;;22.80;39.71;101968.61;112067;1243;23455;-50
2022/03/02 09:51:52;;;;;;;;;40.67;36.67;;;;;22.80;39.71;101968.81;112062;1243;19170;-49
2022/03/02 09:54:18;;;;;;;;;43.33;35.67;;;;;22.80;39.81;101962.29;112112;1242;20021;-51
2022/03/02 09:56:44;;;;;;;;;44.00;36.67;;;;;22.78;39.75;101958.13;112098;1242;23266;-49
2022/03/02 09:59:10;;;;;;;;;41.50;37.50;;;;;22.79;39.93;101958.91;111978;1243;19559;-50
2022/03/02 10:01:36;;;;;;;;;47.67;38.67;;;;;22.79;40.24;101957.23;112035;1242;22914;-49
2022/03/02 10:04:02;;;;;;;;;59.00;47.00;;;;;22.86;40.32;101959.30;112062;1243;23665;-50
2022/03/02 10:06:28;;;;;;;;;53.00;45.00;;;;;22.69;38.26;101953.88;112080;1243;19294;-50
2022/03/02 10:08:54;;;;;;;;;56.33;45.00;;;;;22.53;36.86;101955.76;112048;1243;23349;-50
2022/03/02 10:11:20;;;;;;;;;56.67;44.33;;;;;22.44;37.13;101959.27;112062;1242;19341;-50
2022/03/02 10:13:46;;;;;;;;;57.00;43.33;;;;;22.40;36.78;101959.70;112071;1243;19648;-46
2022/03/02 10:16:12;;;;;;;;;49.00;42.50;;;;;22.43;37.01;101959.05;112084;1242;23789;-49
2022/03/02 10:18:38;;;;;;;;;45.00;40.50;;;;;22.54;37.09;101959.85;112081;1242;19270;-50
2022/03/02 10:21:04;;;;;;;;;49.33;42.00;;;;;22.54;36.62;101954.73;112045;1243;19522;-50
2022/03/02 10:23:30;;;;;;;;;50.00;42.33;;;;;22.46;36.42;101955.79;111953;1242;19979;-50
2022/03/02 10:25:56;;;;;;;;;43.33;39.00;;;;;22.42;36.27;101952.52;112061;1243;19192;-50
2022/03/02 10:28:22;;;;;;;;;49.00;41.00;;;;;22.39;36.27;101951.23;112072;1243;19389;-50
2022/03/02 10:30:47;;;;;;;;;52.33;42.33;;;;;22.34;35.90;101947.68;112071;1243;20000;-50
2022/03/02 10:33:13;;;;;;;;;46.00;42.00;;;;;22.30;35.62;101941.77;112095;1242;23270;-49
2022/03/02 10:35:39;;;;;;;;;54.50;42.50;;;;;22.29;35.44;101933.55;112104;1242;19214;-51
2022/03/02 10:38:05;;;;;;;;;47.33;42.67;;;;;22.24;35.47;101934.59;112051;1242;24252;-50
2022/03/02 10:40:31;;;;;;;;;50.33;42.00;;;;;22.25;35.59;101932.71;112028;1243;19058;-52
2022/03/02 10:42:57;;;;;;;;;50.67;42.00;;;;;22.24;35.92;101930.45;112071;1243;19297;-49
2022/03/02 10:45:23;;;;;;;;;51.67;43.00;;;;;22.23;36.05;101922.85;112038;1243;20246;-49
2022/03/02 10:47:49;;;;;;;;;49.00;40.00;;;;;22.28;35.58;101917.89;112033;1243;19077;-48
2022/03/02 10:50:15;;;;;;;;;43.00;39.33;;;;;22.34;35.84;101914.93;112033;1242;24872;-50
2022/03/02 10:52:40;;;;;;;;;53.00;44.00;;;;;22.39;36.11;101911.65;112075;1242;20097;-50
2022/03/02 10:55:06;;;;;;;;;46.50;39.50;;;;;22.32;35.64;101906.96;111994;1243;19108;-50
2022/03/02 10:57:32;;;;;;;;;44.67;39.67;;;;;22.26;35.81;101903.60;112088;1243;19429;-52
2022/03/02 11:00:00;;;;;;;;;44.00;39.33;;;;;22.25;35.92;101908.10;112053;1243;23296;-51
2022/03/02 11:02:26;;;;;;;;;49.67;40.33;;;;;22.25;36.00;101902.27;112047;1242;23010;-52